Time;durP1;ratioP1;P1;durP2;ratioP2;P2;SDS_P1;SDS_P2;PMS_P1;PMS_P2;Temp;Humidity;BMP_temperature;BMP_pressure;BME280_temperature;BME280_humidity;BME280_pressure;Samples;Min_cycle;Max_cycle;Signal;HPM_P1;HPM_P2
2022/07/24 00:28:55;;;;;;;;;;;;;;;16.46;100.00;101450.44;5990161;23;19922;31
2022/07/24 01:23:06;;;;;;;;;;;;;;;16.28;100.00;101453.94;5880920;23;19929;-83
2022/07/24 01:25:32;;;;;;;;;;;;;;;16.27;100.00;101455.00;4939803;29;19915;-82
2022/07/24 01:30:32;;;;;;;;;;;;;;;15.94;100.00;101398.22;4955463;23;19935;-82
2022/07/24 01:32:58;;;;;;;;;;;;;;;16.25;100.00;101448.94;4925145;29;19915;-83
2022/07/24 01:35:24;;;;;;;;;;;;;;;16.24;100.00;101452.72;4924844;29;19992;-82
2022/07/24 01:37:50;;;;;;;;;;;;;;;16.23;100.00;101450.22;4924501;29;19907;-83
2022/07/24 01:40:15;;;;;;;;;;;;;;;16.22;100.00;101449.38;4921845;29;19932;-82
2022/07/24 01:47:58;;;;;;;;;;;;;;;16.18;100.00;101448.97;5800806;23;19933;31
2022/07/24 03:07:54;;;;;;;;;;;;;;;15.86;100.00;101469.03;4927456;29;19936;-83
2022/07/24 04:47:04;;;;;;;;;;;;;;;16.00;100.00;101495.06;5989455;23;19921;31
2022/07/24 04:49:29;;;;;;;;;;;;;;;15.97;100.00;101499.03;4865718;29;19924;-83
2022/07/24 04:57:05;;;;;;;;;;;;;;;16.06;99.76;101501.50;5192605;23;19911;-83
2022/07/24 05:02:05;;;;;;;;;;;;;;;16.07;98.50;101504.00;5033570;23;19911;-83
2022/07/24 05:04:34;;;;;;;;;;;;;;;16.11;99.14;101496.25;4941551;29;19931;-84
2022/07/24 05:06:59;;;;;;;;;;;;;;;16.11;98.93;101490.81;4924753;29;19923;-83
2022/07/24 05:09:25;;;;;;;;;;;;;;;16.11;98.90;101493.53;4924045;29;19910;-83
2022/07/24 05:11:50;;;;;;;;;;;;;;;16.16;98.47;101493.72;4924218;29;19937;-83
2022/07/24 07:00:32;;;;;;;;;;;;;;;19.83;84.58;101504.72;4473111;23;20209;-81
2022/07/24 07:02:57;;;;;;;;;;;;;;;19.57;85.69;101511.53;4952059;29;19911;-84
2022/07/24 07:05:23;;;;;;;;;;;;;;;19.57;86.29;101519.72;4946879;29;19955;-84
2022/07/24 07:31:05;;;;;;;;;;;;;;;19.38;85.54;101483.59;5535105;23;19936;-83
2022/07/24 07:33:30;;;;;;;;;;;;;;;19.49;84.38;101485.44;4926784;29;19942;-82
2022/07/24 09:29:25;;;;;;;;;;;;;;;21.50;77.72;101502.22;4866653;29;19956;-83
2022/07/24 09:31:54;;;;;;;;;;;;;;;21.52;76.20;101511.84;4851382;29;19912;-84
2022/07/24 11:12:00;;;;;;;;;;;;;;;23.06;73.43;101453.72;5207815;23;19931;-80
2022/07/24 11:14:45;;;;;;;;;;;;;;;23.15;73.14;101454.06;5651721;23;19935;-82
2022/07/24 11:22:38;;;;;;;;;;;;;;;23.15;73.24;101456.78;5355680;23;19911;-81
2022/07/24 11:25:08;;;;;;;;;;;;;;;22.97;73.96;101463.56;5153990;23;20028;-78
2022/07/24 11:27:42;;;;;;;;;;;;;;;23.06;73.94;101452.91;4904803;29;19938;-82
2022/07/24 11:30:09;;;;;;;;;;;;;;;23.12;73.45;101441.69;4905829;29;19920;-80
2022/07/24 11:32:35;;;;;;;;;;;;;;;23.13;72.09;101445.25;4901124;29;19908;-81
2022/07/24 11:35:01;;;;;;;;;;;;;;;23.34;72.83;101440.66;4905197;29;19908;-82
2022/07/24 11:37:29;;;;;;;;;;;;;;;23.38;71.93;101447.28;4905506;29;19912;-82
2022/07/24 11:39:55;;;;;;;;;;;;;;;23.35;71.42;101436.84;4905121;29;19933;-82
2022/07/24 11:42:20;;;;;;;;;;;;;;;23.20;71.88;101443.91;4904973;29;19967;-84
2022/07/24 11:50:00;;;;;;;;;;;;;;;22.84;71.94;101450.28;5574261;23;19927;-81
2022/07/24 11:52:32;;;;;;;;;;;;;;;22.61;72.12;101452.31;4945551;29;19927;-81
2022/07/24 11:57:35;;;;;;;;;;;;;;;22.41;74.17;101443.94;5649135;23;19936;-82
2022/07/24 12:07:38;;;;;;;;;;;;;;;22.23;74.94;101447.94;4941016;29;19927;-81
2022/07/24 12:10:08;;;;;;;;;;;;;;;22.06;76.42;101448.03;4942505;29;19934;-81
2022/07/24 12:12:36;;;;;;;;;;;;;;;21.91;76.89;101456.09;4926057;29;19927;-81
2022/07/24 12:15:04;;;;;;;;;;;;;;;21.74;76.72;101448.81;4926028;29;19974;-81
2022/07/24 12:17:30;;;;;;;;;;;;;;;21.74;77.19;101445.25;4926587;29;19914;-82
2022/07/24 12:25:06;;;;;;;;;;;;;;;21.53;78.69;101433.25;5644998;23;19927;-81
2022/07/24 12:27:40;;;;;;;;;;;;;;;21.55;79.19;101426.41;4920598;29;19943;-81
2022/07/24 12:30:17;;;;;;;;;;;;;;;21.61;79.35;101426.47;4910690;29;19919;-82
2022/07/24 12:32:55;;;;;;;;;;;;;;;21.47;80.28;101428.78;4926746;29;19903;-82
2022/07/24 12:35:21;;;;;;;;;;;;;;;21.38;80.85;101419.38;4921389;29;19911;-80
2022/07/24 12:37:46;;;;;;;;;;;;;;;21.30;80.71;101417.91;4936441;29;19914;-81
2022/07/24 12:42:57;;;;;;;;;;;;;;;21.22;81.34;101410.13;5487130;23;19915;-80
2022/07/24 12:45:22;;;;;;;;;;;;;;;21.25;81.15;101415.09;4910644;29;19919;-83
2022/07/24 12:48:06;;;;;;;;;;;;;;;21.31;81.16;101419.53;4922667;29;19940;-82
2022/07/24 12:50:32;;;;;;;;;;;;;;;21.24;82.38;101411.53;4922641;29;19959;-83
2022/07/24 12:53:06;;;;;;;;;;;;;;;21.33;82.03;101401.78;4915014;29;19923;-83
2022/07/24 12:55:31;;;;;;;;;;;;;;;21.30;82.87;101401.47;4905577;29;19963;-81
2022/07/24 12:57:59;;;;;;;;;;;;;;;21.19;84.09;101394.22;4906369;29;19962;-83
